sensor_id;sensor_type;location;lat;lon;timestamp;P1;durP1;ratioP1;P2;durP2;ratioP2
13032;SDS011;6583;42.632;23.298;2024-02-23T00:01:08;18.60;;;12.67;;
13032;SDS011;6583;42.632;23.298;2024-02-23T00:03:36;15.03;;;10.43;;
13032;SDS011;6583;42.632;23.298;2024-02-23T00:06:04;14.00;;;10.07;;
13032;SDS011;6583;42.632;23.298;2024-02-23T00:08:31;14.63;;;10.23;;
13032;SDS011;6583;42.632;23.298;2024-02-23T00:10:59;14.07;;;9.43;;
13032;SDS011;6583;42.632;23.298;2024-02-23T00:13:25;12.43;;;8.93;;
13032;SDS011;6583;42.632;23.298;2024-02-23T00:15:52;14.50;;;9.40;;
13032;SDS011;6583;42.632;23.298;2024-02-23T00:18:19;13.07;;;9.27;;
13032;SDS011;6583;42.632;23.298;2024-02-23T00:20:46;12.50;;;10.10;;
13032;SDS011;6583;42.632;23.298;2024-02-23T00:23:14;14.90;;;10.37;;
13032;SDS011;6583;42.632;23.298;2024-02-23T00:25:40;15.23;;;10.83;;
13032;SDS011;6583;42.632;23.298;2024-02-23T00:28:08;16.23;;;11.07;;
13032;SDS011;6583;42.632;23.298;2024-02-23T00:30:34;16.63;;;11.17;;
13032;SDS011;6583;42.632;23.298;2024-02-23T00:33:01;15.17;;;11.50;;
13032;SDS011;6583;42.632;23.298;2024-02-23T00:35:28;15.77;;;11.17;;
13032;SDS011;6583;42.632;23.298;2024-02-23T00:37:55;15.20;;;11.53;;
13032;SDS011;6583;42.632;23.298;2024-02-23T00:40:23;15.57;;;11.23;;
13032;SDS011;6583;42.632;23.298;2024-02-23T00:42:50;17.93;;;11.77;;
13032;SDS011;6583;42.632;23.298;2024-02-23T00:45:17;15.97;;;11.60;;
13032;SDS011;6583;42.632;23.298;2024-02-23T00:47:44;15.93;;;12.03;;
13032;SDS011;6583;42.632;23.298;2024-02-23T00:50:12;15.27;;;10.93;;
13032;SDS011;6583;42.632;23.298;2024-02-23T00:52:38;14.37;;;10.80;;
13032;SDS011;6583;42.632;23.298;2024-02-23T00:55:06;15.30;;;10.73;;
13032;SDS011;6583;42.632;23.298;2024-02-23T00:57:35;13.80;;;9.40;;
13032;SDS011;6583;42.632;23.298;2024-02-23T01:00:02;12.93;;;9.70;;
13032;SDS011;6583;42.632;23.298;2024-02-23T01:02:30;13.57;;;9.57;;
13032;SDS011;6583;42.632;23.298;2024-02-23T01:04:56;13.47;;;10.10;;
13032;SDS011;6583;42.632;23.298;2024-02-23T01:07:23;14.17;;;10.90;;
13032;SDS011;6583;42.632;23.298;2024-02-23T01:09:50;15.13;;;10.87;;
13032;SDS011;6583;42.632;23.298;2024-02-23T01:12:17;16.37;;;11.23;;
13032;SDS011;6583;42.632;23.298;2024-02-23T01:14:45;16.20;;;11.40;;
13032;SDS011;6583;42.632;23.298;2024-02-23T01:17:13;15.90;;;11.30;;
13032;SDS011;6583;42.632;23.298;2024-02-23T01:19:40;14.67;;;10.70;;
13032;SDS011;6583;42.632;23.298;2024-02-23T01:22:07;12.30;;;9.30;;
13032;SDS011;6583;42.632;23.298;2024-02-23T01:24:34;13.90;;;10.00;;
13032;SDS011;6583;42.632;23.298;2024-02-23T01:27:01;11.37;;;9.57;;
13032;SDS011;6583;42.632;23.298;2024-02-23T01:29:28;14.07;;;10.47;;
13032;SDS011;6583;42.632;23.298;2024-02-23T01:31:56;12.70;;;9.80;;
13032;SDS011;6583;42.632;23.298;2024-02-23T01:34:22;13.97;;;9.90;;
13032;SDS011;6583;42.632;23.298;2024-02-23T01:36:49;15.33;;;10.40;;
13032;SDS011;6583;42.632;23.298;2024-02-23T01:39:15;14.87;;;10.60;;
13032;SDS011;6583;42.632;23.298;2024-02-23T01:41:42;14.47;;;11.17;;
13032;SDS011;6583;42.632;23.298;2024-02-23T01:44:10;17.87;;;11.87;;
13032;SDS011;6583;42.632;23.298;2024-02-23T01:46:37;16.60;;;11.77;;
13032;SDS011;6583;42.632;23.298;2024-02-23T01:49:05;14.60;;;10.77;;
13032;SDS011;6583;42.632;23.298;2024-02-23T01:51:34;16.97;;;10.87;;
13032;SDS011;6583;42.632;23.298;2024-02-23T01:54:01;13.43;;;10.13;;
13032;SDS011;6583;42.632;23.298;2024-02-23T01:56:28;13.83;;;10.37;;
13032;SDS011;6583;42.632;23.298;2024-02-23T01:58:55;14.43;;;9.97;;
13032;SDS011;6583;42.632;23.298;2024-02-23T02:01:22;14.73;;;10.20;;
13032;SDS011;6583;42.632;23.298;2024-02-23T02:03:48;11.13;;;8.93;;
13032;SDS011;6583;42.632;23.298;2024-02-23T02:06:16;14.33;;;9.97;;
13032;SDS011;6583;42.632;23.298;2024-02-23T02:08:44;13.43;;;10.43;;
13032;SDS011;6583;42.632;23.298;2024-02-23T02:11:11;13.77;;;9.80;;
13032;SDS011;6583;42.632;23.298;2024-02-23T02:13:38;13.47;;;10.10;;
13032;SDS011;6583;42.632;23.298;2024-02-23T02:16:05;12.97;;;9.13;;
13032;SDS011;6583;42.632;23.298;2024-02-23T02:18:32;13.10;;;9.40;;
13032;SDS011;6583;42.632;23.298;2024-02-23T02:20:59;14.07;;;10.00;;
13032;SDS011;6583;42.632;23.298;2024-02-23T02:23:27;13.47;;;9.60;;
13032;SDS011;6583;42.632;23.298;2024-02-23T02:25:54;13.13;;;9.70;;
13032;SDS011;6583;42.632;23.298;2024-02-23T02:28:21;13.23;;;10.37;;
13032;SDS011;6583;42.632;23.298;2024-02-23T02:30:48;13.63;;;9.97;;
13032;SDS011;6583;42.632;23.298;2024-02-23T02:33:15;12.77;;;9.63;;
13032;SDS011;6583;42.632;23.298;2024-02-23T02:35:42;13.50;;;10.00;;
13032;SDS011;6583;42.632;23.298;2024-02-23T02:38:10;13.50;;;9.80;;
13032;SDS011;6583;42.632;23.298;2024-02-23T02:40:38;11.00;;;9.10;;
13032;SDS011;6583;42.632;23.298;2024-02-23T02:43:05;12.20;;;9.47;;
13032;SDS011;6583;42.632;23.298;2024-02-23T02:45:32;12.47;;;9.63;;
13032;SDS011;6583;42.632;23.298;2024-02-23T02:48:00;11.07;;;9.00;;
13032;SDS011;6583;42.632;23.298;2024-02-23T02:50:27;12.50;;;8.97;;
13032;SDS011;6583;42.632;23.298;2024-02-23T02:52:53;12.83;;;9.67;;
13032;SDS011;6583;42.632;23.298;2024-02-23T02:55:20;14.70;;;9.83;;
13032;SDS011;6583;42.632;23.298;2024-02-23T02:57:48;11.37;;;9.20;;
13032;SDS011;6583;42.632;23.298;2024-02-23T03:00:15;13.40;;;10.00;;
13032;SDS011;6583;42.632;23.298;2024-02-23T03:02:42;13.13;;;9.43;;
13032;SDS011;6583;42.632;23.298;2024-02-23T03:05:09;11.90;;;9.43;;
13032;SDS011;6583;42.632;23.298;2024-02-23T03:07:35;13.47;;;9.47;;
13032;SDS011;6583;42.632;23.298;2024-02-23T03:10:02;13.80;;;9.40;;
13032;SDS011;6583;42.632;23.298;2024-02-23T03:12:29;13.53;;;9.00;;
13032;SDS011;6583;42.632;23.298;2024-02-23T03:14:57;12.53;;;9.07;;
13032;SDS011;6583;42.632;23.298;2024-02-23T03:17:24;13.73;;;10.03;;
13032;SDS011;6583;42.632;23.298;2024-02-23T03:19:51;13.17;;;9.97;;
13032;SDS011;6583;42.632;23.298;2024-02-23T03:22:17;12.80;;;10.10;;
13032;SDS011;6583;42.632;23.298;2024-02-23T03:24:44;11.63;;;9.57;;
13032;SDS011;6583;42.632;23.298;2024-02-23T03:27:11;12.03;;;9.83;;
13032;SDS011;6583;42.632;23.298;2024-02-23T03:29:38;12.53;;;9.80;;
13032;SDS011;6583;42.632;23.298;2024-02-23T03:32:06;12.63;;;9.73;;
13032;SDS011;6583;42.632;23.298;2024-02-23T03:34:33;12.77;;;9.80;;
13032;SDS011;6583;42.632;23.298;2024-02-23T03:37:01;14.23;;;10.20;;
13032;SDS011;6583;42.632;23.298;2024-02-23T03:39:28;14.47;;;10.37;;
13032;SDS011;6583;42.632;23.298;2024-02-23T03:41:55;14.93;;;10.23;;
13032;SDS011;6583;42.632;23.298;2024-02-23T03:44:21;14.33;;;10.70;;
13032;SDS011;6583;42.632;23.298;2024-02-23T03:46:48;14.00;;;10.17;;
13032;SDS011;6583;42.632;23.298;2024-02-23T03:49:16;13.33;;;10.43;;
13032;SDS011;6583;42.632;23.298;2024-02-23T03:51:43;12.93;;;9.70;;
13032;SDS011;6583;42.632;23.298;2024-02-23T03:54:09;14.43;;;10.10;;
13032;SDS011;6583;42.632;23.298;2024-02-23T03:56:39;12.27;;;9.67;;
13032;SDS011;6583;42.632;23.298;2024-02-23T03:59:06;12.93;;;9.70;;
13032;SDS011;6583;42.632;23.298;2024-02-23T04:01:34;12.37;;;9.37;;
13032;SDS011;6583;42.632;23.298;2024-02-23T04:04:05;14.03;;;10.40;;
13032;SDS011;6583;42.632;23.298;2024-02-23T04:06:33;10.97;;;7.33;;
13032;SDS011;6583;42.632;23.298;2024-02-23T04:09:00;12.90;;;9.33;;
13032;SDS011;6583;42.632;23.298;2024-02-23T04:11:30;12.03;;;8.93;;
13032;SDS011;6583;42.632;23.298;2024-02-23T04:13:56;12.33;;;9.50;;
13032;SDS011;6583;42.632;23.298;2024-02-23T04:16:23;11.17;;;9.37;;
13032;SDS011;6583;42.632;23.298;2024-02-23T04:18:50;13.53;;;10.37;;
13032;SDS011;6583;42.632;23.298;2024-02-23T04:21:17;13.83;;;9.80;;
13032;SDS011;6583;42.632;23.298;2024-02-23T04:23:45;12.47;;;9.90;;
13032;SDS011;6583;42.632;23.298;2024-02-23T04:26:12;13.90;;;10.43;;
13032;SDS011;6583;42.632;23.298;2024-02-23T04:28:39;11.80;;;9.57;;
13032;SDS011;6583;42.632;23.298;2024-02-23T04:31:07;13.13;;;9.67;;
13032;SDS011;6583;42.632;23.298;2024-02-23T04:33:34;13.47;;;10.27;;
13032;SDS011;6583;42.632;23.298;2024-02-23T04:36:01;13.73;;;10.23;;
13032;SDS011;6583;42.632;23.298;2024-02-23T04:38:31;15.40;;;11.03;;
13032;SDS011;6583;42.632;23.298;2024-02-23T04:41:02;13.87;;;10.50;;
13032;SDS011;6583;42.632;23.298;2024-02-23T04:43:29;15.40;;;10.43;;
13032;SDS011;6583;42.632;23.298;2024-02-23T04:45:55;13.43;;;10.30;;
13032;SDS011;6583;42.632;23.298;2024-02-23T04:48:22;15.40;;;10.30;;
13032;SDS011;6583;42.632;23.298;2024-02-23T04:50:49;13.10;;;9.80;;
13032;SDS011;6583;42.632;23.298;2024-02-23T04:53:16;13.33;;;10.20;;
13032;SDS011;6583;42.632;23.298;2024-02-23T04:55:44;15.13;;;10.90;;
13032;SDS011;6583;42.632;23.298;2024-02-23T04:58:12;14.00;;;9.97;;
13032;SDS011;6583;42.632;23.298;2024-02-23T05:00:39;13.43;;;9.90;;
13032;SDS011;6583;42.632;23.298;2024-02-23T05:03:06;14.07;;;10.93;;
13032;SDS011;6583;42.632;23.298;2024-02-23T05:05:33;14.77;;;10.73;;
13032;SDS011;6583;42.632;23.298;2024-02-23T05:08:01;14.10;;;10.53;;
13032;SDS011;6583;42.632;23.298;2024-02-23T05:10:28;14.47;;;10.57;;
13032;SDS011;6583;42.632;23.298;2024-02-23T05:12:55;13.63;;;9.87;;
13032;SDS011;6583;42.632;23.298;2024-02-23T05:15:23;13.00;;;10.40;;
13032;SDS011;6583;42.632;23.298;2024-02-23T05:17:49;13.73;;;9.93;;
13032;SDS011;6583;42.632;23.298;2024-02-23T05:20:16;13.50;;;10.07;;
13032;SDS011;6583;42.632;23.298;2024-02-23T05:22:43;13.97;;;10.37;;
13032;SDS011;6583;42.632;23.298;2024-02-23T05:25:09;13.10;;;9.57;;
13032;SDS011;6583;42.632;23.298;2024-02-23T05:27:36;13.80;;;10.33;;
13032;SDS011;6583;42.632;23.298;2024-02-23T05:30:03;11.47;;;9.17;;
13032;SDS011;6583;42.632;23.298;2024-02-23T05:32:33;11.27;;;9.23;;
13032;SDS011;6583;42.632;23.298;2024-02-23T05:34:59;12.20;;;9.27;;
13032;SDS011;6583;42.632;23.298;2024-02-23T05:37:26;12.47;;;9.90;;
13032;SDS011;6583;42.632;23.298;2024-02-23T05:39:53;13.17;;;8.90;;
13032;SDS011;6583;42.632;23.298;2024-02-23T05:42:20;12.33;;;8.63;;
13032;SDS011;6583;42.632;23.298;2024-02-23T05:44:46;13.30;;;9.03;;
13032;SDS011;6583;42.632;23.298;2024-02-23T05:47:13;12.60;;;9.40;;
13032;SDS011;6583;42.632;23.298;2024-02-23T05:49:41;12.70;;;9.43;;
13032;SDS011;6583;42.632;23.298;2024-02-23T05:52:08;12.57;;;9.80;;
13032;SDS011;6583;42.632;23.298;2024-02-23T05:54:35;13.67;;;9.90;;
13032;SDS011;6583;42.632;23.298;2024-02-23T05:57:02;12.73;;;9.63;;
13032;SDS011;6583;42.632;23.298;2024-02-23T05:59:29;12.97;;;9.80;;
13032;SDS011;6583;42.632;23.298;2024-02-23T06:01:57;13.77;;;10.03;;
13032;SDS011;6583;42.632;23.298;2024-02-23T06:04:23;14.77;;;10.70;;
13032;SDS011;6583;42.632;23.298;2024-02-23T06:06:51;13.13;;;10.70;;
13032;SDS011;6583;42.632;23.298;2024-02-23T06:09:18;15.53;;;10.90;;
13032;SDS011;6583;42.632;23.298;2024-02-23T06:11:45;14.67;;;10.80;;
13032;SDS011;6583;42.632;23.298;2024-02-23T06:14:12;14.13;;;10.77;;
13032;SDS011;6583;42.632;23.298;2024-02-23T06:16:39;22.57;;;14.47;;
13032;SDS011;6583;42.632;23.298;2024-02-23T06:19:06;15.47;;;11.17;;
13032;SDS011;6583;42.632;23.298;2024-02-23T06:21:33;16.27;;;11.23;;
13032;SDS011;6583;42.632;23.298;2024-02-23T06:24:01;17.83;;;11.83;;
13032;SDS011;6583;42.632;23.298;2024-02-23T06:26:27;15.80;;;11.80;;
13032;SDS011;6583;42.632;23.298;2024-02-23T06:28:54;16.27;;;11.97;;
13032;SDS011;6583;42.632;23.298;2024-02-23T06:31:21;16.53;;;11.63;;
13032;SDS011;6583;42.632;23.298;2024-02-23T06:33:47;16.33;;;10.77;;
13032;SDS011;6583;42.632;23.298;2024-02-23T06:36:16;17.03;;;12.00;;
13032;SDS011;6583;42.632;23.298;2024-02-23T06:38:43;16.40;;;12.13;;
13032;SDS011;6583;42.632;23.298;2024-02-23T06:41:12;15.97;;;12.60;;
13032;SDS011;6583;42.632;23.298;2024-02-23T06:43:39;18.37;;;12.97;;
13032;SDS011;6583;42.632;23.298;2024-02-23T06:46:06;15.83;;;12.10;;
13032;SDS011;6583;42.632;23.298;2024-02-23T06:48:33;16.57;;;11.50;;
13032;SDS011;6583;42.632;23.298;2024-02-23T06:51:00;14.33;;;11.30;;
13032;SDS011;6583;42.632;23.298;2024-02-23T06:53:28;15.60;;;11.73;;
13032;SDS011;6583;42.632;23.298;2024-02-23T06:55:55;17.00;;;11.70;;
13032;SDS011;6583;42.632;23.298;2024-02-23T06:58:23;14.37;;;10.63;;
13032;SDS011;6583;42.632;23.298;2024-02-23T07:00:49;14.30;;;10.87;;
13032;SDS011;6583;42.632;23.298;2024-02-23T07:03:16;14.37;;;10.77;;
13032;SDS011;6583;42.632;23.298;2024-02-23T07:05:43;15.33;;;10.77;;
13032;SDS011;6583;42.632;23.298;2024-02-23T07:08:10;13.47;;;10.37;;
13032;SDS011;6583;42.632;23.298;2024-02-23T07:10:37;14.03;;;9.77;;
13032;SDS011;6583;42.632;23.298;2024-02-23T07:13:03;14.10;;;10.13;;
13032;SDS011;6583;42.632;23.298;2024-02-23T07:15:32;14.53;;;10.80;;
13032;SDS011;6583;42.632;23.298;2024-02-23T07:17:58;11.03;;;8.03;;
13032;SDS011;6583;42.632;23.298;2024-02-23T07:20:25;16.00;;;11.17;;
13032;SDS011;6583;42.632;23.298;2024-02-23T07:22:52;15.50;;;10.87;;
13032;SDS011;6583;42.632;23.298;2024-02-23T07:25:19;13.50;;;9.90;;
13032;SDS011;6583;42.632;23.298;2024-02-23T07:27:46;14.90;;;11.20;;
13032;SDS011;6583;42.632;23.298;2024-02-23T07:30:14;15.63;;;10.80;;
13032;SDS011;6583;42.632;23.298;2024-02-23T07:32:44;16.90;;;11.90;;
13032;SDS011;6583;42.632;23.298;2024-02-23T07:35:11;14.40;;;10.63;;
13032;SDS011;6583;42.632;23.298;2024-02-23T07:37:38;20.27;;;13.10;;
13032;SDS011;6583;42.632;23.298;2024-02-23T07:40:06;16.23;;;11.87;;
13032;SDS011;6583;42.632;23.298;2024-02-23T07:42:33;16.57;;;11.80;;
13032;SDS011;6583;42.632;23.298;2024-02-23T07:45:02;16.63;;;10.53;;
13032;SDS011;6583;42.632;23.298;2024-02-23T07:47:29;14.47;;;10.63;;
13032;SDS011;6583;42.632;23.298;2024-02-23T07:49:57;14.00;;;10.80;;
13032;SDS011;6583;42.632;23.298;2024-02-23T07:52:24;15.57;;;11.70;;
13032;SDS011;6583;42.632;23.298;2024-02-23T07:54:51;16.30;;;11.20;;
13032;SDS011;6583;42.632;23.298;2024-02-23T07:57:18;16.70;;;11.70;;
13032;SDS011;6583;42.632;23.298;2024-02-23T07:59:44;18.37;;;12.53;;
13032;SDS011;6583;42.632;23.298;2024-02-23T08:02:11;18.90;;;12.50;;
13032;SDS011;6583;42.632;23.298;2024-02-23T08:04:38;17.20;;;12.67;;
13032;SDS011;6583;42.632;23.298;2024-02-23T08:07:06;16.80;;;12.60;;
13032;SDS011;6583;42.632;23.298;2024-02-23T08:09:33;15.50;;;11.87;;
13032;SDS011;6583;42.632;23.298;2024-02-23T08:12:00;16.80;;;11.50;;
13032;SDS011;6583;42.632;23.298;2024-02-23T08:14:26;16.63;;;12.30;;
13032;SDS011;6583;42.632;23.298;2024-02-23T08:16:53;18.67;;;12.00;;
13032;SDS011;6583;42.632;23.298;2024-02-23T08:19:20;17.90;;;11.90;;
13032;SDS011;6583;42.632;23.298;2024-02-23T08:21:46;18.00;;;12.37;;
13032;SDS011;6583;42.632;23.298;2024-02-23T08:24:14;17.33;;;12.20;;
13032;SDS011;6583;42.632;23.298;2024-02-23T08:26:41;17.77;;;12.20;;
13032;SDS011;6583;42.632;23.298;2024-02-23T08:29:08;17.67;;;13.53;;
13032;SDS011;6583;42.632;23.298;2024-02-23T08:31:34;16.80;;;12.33;;
13032;SDS011;6583;42.632;23.298;2024-02-23T08:34:01;19.80;;;13.47;;
13032;SDS011;6583;42.632;23.298;2024-02-23T08:36:28;16.23;;;12.13;;
13032;SDS011;6583;42.632;23.298;2024-02-23T08:38:55;18.87;;;13.03;;
13032;SDS011;6583;42.632;23.298;2024-02-23T08:41:23;15.93;;;12.20;;
13032;SDS011;6583;42.632;23.298;2024-02-23T08:43:50;16.00;;;12.13;;
13032;SDS011;6583;42.632;23.298;2024-02-23T08:46:16;18.20;;;13.17;;
13032;SDS011;6583;42.632;23.298;2024-02-23T08:48:43;16.33;;;12.83;;
13032;SDS011;6583;42.632;23.298;2024-02-23T08:51:10;15.43;;;11.97;;
13032;SDS011;6583;42.632;23.298;2024-02-23T08:53:36;14.60;;;11.60;;
13032;SDS011;6583;42.632;23.298;2024-02-23T08:56:03;16.30;;;12.17;;
13032;SDS011;6583;42.632;23.298;2024-02-23T08:58:33;17.73;;;12.97;;
13032;SDS011;6583;42.632;23.298;2024-02-23T09:01:00;13.43;;;9.33;;
13032;SDS011;6583;42.632;23.298;2024-02-23T09:03:27;13.60;;;9.23;;
13032;SDS011;6583;42.632;23.298;2024-02-23T09:05:53;13.07;;;9.53;;
13032;SDS011;6583;42.632;23.298;2024-02-23T09:08:20;14.13;;;10.23;;
13032;SDS011;6583;42.632;23.298;2024-02-23T09:10:46;15.80;;;11.43;;
13032;SDS011;6583;42.632;23.298;2024-02-23T09:13:13;15.87;;;11.23;;
13032;SDS011;6583;42.632;23.298;2024-02-23T09:15:41;12.50;;;9.93;;
13032;SDS011;6583;42.632;23.298;2024-02-23T09:18:08;11.23;;;7.50;;
13032;SDS011;6583;42.632;23.298;2024-02-23T09:20:35;12.90;;;8.97;;
13032;SDS011;6583;42.632;23.298;2024-02-23T09:23:02;12.63;;;9.27;;
13032;SDS011;6583;42.632;23.298;2024-02-23T09:25:28;14.37;;;10.03;;
13032;SDS011;6583;42.632;23.298;2024-02-23T09:27:56;12.97;;;9.17;;
13032;SDS011;6583;42.632;23.298;2024-02-23T09:30:23;10.60;;;7.23;;
13032;SDS011;6583;42.632;23.298;2024-02-23T09:32:51;3.93;;;3.47;;
13032;SDS011;6583;42.632;23.298;2024-02-23T09:35:18;13.33;;;9.00;;
13032;SDS011;6583;42.632;23.298;2024-02-23T09:37:45;5.27;;;4.47;;
13032;SDS011;6583;42.632;23.298;2024-02-23T09:40:11;4.03;;;3.37;;
13032;SDS011;6583;42.632;23.298;2024-02-23T09:42:40;6.27;;;5.17;;
13032;SDS011;6583;42.632;23.298;2024-02-23T09:45:08;8.57;;;5.93;;
13032;SDS011;6583;42.632;23.298;2024-02-23T09:47:37;7.57;;;5.30;;
13032;SDS011;6583;42.632;23.298;2024-02-23T09:50:06;7.30;;;5.50;;
13032;SDS011;6583;42.632;23.298;2024-02-23T09:52:35;7.00;;;5.00;;
13032;SDS011;6583;42.632;23.298;2024-02-23T09:55:02;5.50;;;4.00;;
13032;SDS011;6583;42.632;23.298;2024-02-23T09:57:29;3.20;;;2.90;;
13032;SDS011;6583;42.632;23.298;2024-02-23T09:59:56;3.13;;;2.83;;
13032;SDS011;6583;42.632;23.298;2024-02-23T10:02:24;3.77;;;3.40;;
13032;SDS011;6583;42.632;23.298;2024-02-23T10:04:51;4.53;;;3.97;;
13032;SDS011;6583;42.632;23.298;2024-02-23T10:07:23;4.67;;;3.03;;
13032;SDS011;6583;42.632;23.298;2024-02-23T10:09:52;2.90;;;2.60;;
13032;SDS011;6583;42.632;23.298;2024-02-23T10:12:20;3.07;;;2.83;;
13032;SDS011;6583;42.632;23.298;2024-02-23T10:14:47;3.73;;;3.37;;
13032;SDS011;6583;42.632;23.298;2024-02-23T10:17:14;4.17;;;3.20;;
13032;SDS011;6583;42.632;23.298;2024-02-23T10:19:40;2.73;;;2.53;;
13032;SDS011;6583;42.632;23.298;2024-02-23T10:22:07;3.07;;;2.77;;
13032;SDS011;6583;42.632;23.298;2024-02-23T10:24:36;4.17;;;3.77;;
13032;SDS011;6583;42.632;23.298;2024-02-23T10:27:03;4.40;;;2.90;;
13032;SDS011;6583;42.632;23.298;2024-02-23T10:29:30;3.13;;;2.70;;
13032;SDS011;6583;42.632;23.298;2024-02-23T10:31:57;5.63;;;2.90;;
13032;SDS011;6583;42.632;23.298;2024-02-23T10:34:24;3.20;;;2.90;;
13032;SDS011;6583;42.632;23.298;2024-02-23T10:36:51;3.17;;;2.87;;
13032;SDS011;6583;42.632;23.298;2024-02-23T10:39:20;3.67;;;3.23;;
13032;SDS011;6583;42.632;23.298;2024-02-23T10:41:54;5.60;;;3.47;;
13032;SDS011;6583;42.632;23.298;2024-02-23T10:44:23;2.90;;;2.60;;
13032;SDS011;6583;42.632;23.298;2024-02-23T10:46:50;2.77;;;2.50;;
13032;SDS011;6583;42.632;23.298;2024-02-23T10:49:18;3.00;;;2.33;;
13032;SDS011;6583;42.632;23.298;2024-02-23T10:51:47;2.50;;;2.30;;
13032;SDS011;6583;42.632;23.298;2024-02-23T10:54:17;2.90;;;2.60;;
13032;SDS011;6583;42.632;23.298;2024-02-23T10:56:46;3.37;;;2.30;;
13032;SDS011;6583;42.632;23.298;2024-02-23T10:59:16;3.23;;;2.50;;
13032;SDS011;6583;42.632;23.298;2024-02-23T11:01:44;2.50;;;2.30;;
13032;SDS011;6583;42.632;23.298;2024-02-23T11:04:14;2.73;;;2.53;;
13032;SDS011;6583;42.632;23.298;2024-02-23T11:06:41;2.40;;;2.20;;
13032;SDS011;6583;42.632;23.298;2024-02-23T11:09:11;2.80;;;2.50;;
13032;SDS011;6583;42.632;23.298;2024-02-23T11:11:39;3.00;;;2.70;;
13032;SDS011;6583;42.632;23.298;2024-02-23T11:14:07;2.50;;;2.30;;
13032;SDS011;6583;42.632;23.298;2024-02-23T11:16:39;4.63;;;3.37;;
13032;SDS011;6583;42.632;23.298;2024-02-23T11:19:08;3.00;;;2.70;;
13032;SDS011;6583;42.632;23.298;2024-02-23T11:21:36;2.83;;;2.40;;
13032;SDS011;6583;42.632;23.298;2024-02-23T11:24:04;2.97;;;2.20;;
13032;SDS011;6583;42.632;23.298;2024-02-23T11:26:31;2.50;;;2.30;;
13032;SDS011;6583;42.632;23.298;2024-02-23T11:29:09;4.03;;;3.20;;
13032;SDS011;6583;42.632;23.298;2024-02-23T11:31:36;3.07;;;2.73;;
13032;SDS011;6583;42.632;23.298;2024-02-23T11:34:11;4.30;;;2.30;;
13032;SDS011;6583;42.632;23.298;2024-02-23T11:36:38;2.87;;;2.60;;
13032;SDS011;6583;42.632;23.298;2024-02-23T11:39:05;2.67;;;2.07;;
13032;SDS011;6583;42.632;23.298;2024-02-23T11:41:32;3.40;;;2.33;;
13032;SDS011;6583;42.632;23.298;2024-02-23T11:43:58;3.07;;;2.30;;
13032;SDS011;6583;42.632;23.298;2024-02-23T11:46:25;2.70;;;2.50;;
13032;SDS011;6583;42.632;23.298;2024-02-23T11:48:52;2.73;;;2.43;;
13032;SDS011;6583;42.632;23.298;2024-02-23T11:51:21;3.63;;;2.53;;
13032;SDS011;6583;42.632;23.298;2024-02-23T11:53:48;4.20;;;2.63;;
13032;SDS011;6583;42.632;23.298;2024-02-23T11:56:15;2.83;;;2.60;;
13032;SDS011;6583;42.632;23.298;2024-02-23T11:58:43;2.57;;;2.37;;
13032;SDS011;6583;42.632;23.298;2024-02-23T12:01:10;4.07;;;3.20;;
13032;SDS011;6583;42.632;23.298;2024-02-23T12:03:36;4.10;;;2.70;;
13032;SDS011;6583;42.632;23.298;2024-02-23T12:06:04;2.37;;;2.17;;
13032;SDS011;6583;42.632;23.298;2024-02-23T12:08:34;2.87;;;2.20;;
13032;SDS011;6583;42.632;23.298;2024-02-23T12:11:03;3.47;;;2.27;;
13032;SDS011;6583;42.632;23.298;2024-02-23T12:13:32;2.83;;;2.20;;
13032;SDS011;6583;42.632;23.298;2024-02-23T12:15:59;3.30;;;2.10;;
13032;SDS011;6583;42.632;23.298;2024-02-23T12:18:27;2.27;;;2.07;;
13032;SDS011;6583;42.632;23.298;2024-02-23T12:20:58;2.40;;;2.20;;
13032;SDS011;6583;42.632;23.298;2024-02-23T12:23:25;2.30;;;2.10;;
13032;SDS011;6583;42.632;23.298;2024-02-23T12:25:53;2.33;;;2.13;;
13032;SDS011;6583;42.632;23.298;2024-02-23T12:28:21;3.17;;;2.30;;
13032;SDS011;6583;42.632;23.298;2024-02-23T12:30:57;4.57;;;2.63;;
13032;SDS011;6583;42.632;23.298;2024-02-23T12:33:26;2.97;;;2.27;;
13032;SDS011;6583;42.632;23.298;2024-02-23T12:35:53;3.87;;;2.60;;
13032;SDS011;6583;42.632;23.298;2024-02-23T12:38:20;2.60;;;2.37;;
13032;SDS011;6583;42.632;23.298;2024-02-23T12:40:47;2.10;;;2.00;;
13032;SDS011;6583;42.632;23.298;2024-02-23T12:43:15;2.43;;;2.20;;
13032;SDS011;6583;42.632;23.298;2024-02-23T12:45:42;3.70;;;3.03;;
13032;SDS011;6583;42.632;23.298;2024-02-23T12:48:10;4.97;;;2.60;;
13032;SDS011;6583;42.632;23.298;2024-02-23T12:50:36;2.40;;;2.20;;
13032;SDS011;6583;42.632;23.298;2024-02-23T12:53:03;3.63;;;2.33;;
13032;SDS011;6583;42.632;23.298;2024-02-23T12:55:30;2.00;;;1.80;;
13032;SDS011;6583;42.632;23.298;2024-02-23T12:57:57;2.70;;;2.27;;
13032;SDS011;6583;42.632;23.298;2024-02-23T13:00:25;3.33;;;2.53;;
13032;SDS011;6583;42.632;23.298;2024-02-23T13:02:51;2.63;;;2.33;;
13032;SDS011;6583;42.632;23.298;2024-02-23T13:05:18;2.90;;;2.70;;
13032;SDS011;6583;42.632;23.298;2024-02-23T13:07:45;3.00;;;2.20;;
13032;SDS011;6583;42.632;23.298;2024-02-23T13:10:11;2.77;;;2.57;;
13032;SDS011;6583;42.632;23.298;2024-02-23T13:12:38;3.63;;;2.50;;
13032;SDS011;6583;42.632;23.298;2024-02-23T13:15:05;3.10;;;2.50;;
13032;SDS011;6583;42.632;23.298;2024-02-23T13:17:34;2.60;;;2.40;;
13032;SDS011;6583;42.632;23.298;2024-02-23T13:20:01;3.43;;;2.30;;
13032;SDS011;6583;42.632;23.298;2024-02-23T13:22:27;2.30;;;2.10;;
13032;SDS011;6583;42.632;23.298;2024-02-23T13:24:54;2.33;;;2.13;;
13032;SDS011;6583;42.632;23.298;2024-02-23T13:27:21;2.53;;;2.33;;
13032;SDS011;6583;42.632;23.298;2024-02-23T13:29:47;2.30;;;2.10;;
13032;SDS011;6583;42.632;23.298;2024-02-23T13:32:14;2.27;;;2.17;;
13032;SDS011;6583;42.632;23.298;2024-02-23T13:34:42;3.93;;;2.53;;
13032;SDS011;6583;42.632;23.298;2024-02-23T13:37:09;3.40;;;2.30;;
13032;SDS011;6583;42.632;23.298;2024-02-23T13:39:35;5.43;;;2.77;;
13032;SDS011;6583;42.632;23.298;2024-02-23T13:42:02;2.87;;;2.37;;
13032;SDS011;6583;42.632;23.298;2024-02-23T13:44:30;2.40;;;2.20;;
13032;SDS011;6583;42.632;23.298;2024-02-23T13:46:57;3.10;;;2.30;;
13032;SDS011;6583;42.632;23.298;2024-02-23T13:49:24;2.43;;;2.23;;
13032;SDS011;6583;42.632;23.298;2024-02-23T13:51:52;3.60;;;2.57;;
13032;SDS011;6583;42.632;23.298;2024-02-23T13:54:19;3.40;;;2.53;;
13032;SDS011;6583;42.632;23.298;2024-02-23T13:56:45;1.70;;;1.60;;
13032;SDS011;6583;42.632;23.298;2024-02-23T13:59:12;2.47;;;2.23;;
13032;SDS011;6583;42.632;23.298;2024-02-23T14:01:39;2.80;;;2.47;;
13032;SDS011;6583;42.632;23.298;2024-02-23T14:04:06;4.43;;;2.37;;
13032;SDS011;6583;42.632;23.298;2024-02-23T14:06:33;3.67;;;2.50;;
13032;SDS011;6583;42.632;23.298;2024-02-23T14:09:01;6.30;;;2.60;;
13032;SDS011;6583;42.632;23.298;2024-02-23T14:11:28;2.93;;;2.13;;
13032;SDS011;6583;42.632;23.298;2024-02-23T14:13:55;2.47;;;2.27;;
13032;SDS011;6583;42.632;23.298;2024-02-23T14:16:23;2.77;;;2.20;;
13032;SDS011;6583;42.632;23.298;2024-02-23T14:18:49;3.47;;;2.37;;
13032;SDS011;6583;42.632;23.298;2024-02-23T14:21:16;2.57;;;2.37;;
13032;SDS011;6583;42.632;23.298;2024-02-23T14:23:43;2.67;;;2.17;;
13032;SDS011;6583;42.632;23.298;2024-02-23T14:26:11;2.70;;;2.27;;
13032;SDS011;6583;42.632;23.298;2024-02-23T14:28:38;3.53;;;2.70;;
13032;SDS011;6583;42.632;23.298;2024-02-23T14:31:06;3.30;;;2.90;;
13032;SDS011;6583;42.632;23.298;2024-02-23T14:33:32;3.73;;;2.80;;